createdAt,value
2018-09-24T00:00:22.182Z,1018.25
2018-09-24T00:01:30.723Z,1018.34
2018-09-24T00:02:39.633Z,1018.36
2018-09-24T00:03:48.537Z,1018.37
2018-09-24T00:04:57.174Z,1018.38
2018-09-24T00:06:05.810Z,1018.39
2018-09-24T00:07:14.445Z,1018.4
2018-09-24T00:08:23.346Z,1018.46
2018-09-24T00:09:31.988Z,1018.46
2018-09-24T00:10:40.622Z,1018.46
2018-09-24T00:11:49.259Z,1018.49
2018-09-24T00:12:58.167Z,1018.53
2018-09-24T00:14:06.809Z,1018.53
2018-09-24T00:15:15.441Z,1018.55
2018-09-24T00:16:24.082Z,1018.56
2018-09-24T00:17:32.717Z,1018.56
2018-09-24T00:18:41.368Z,1018.62
2018-09-24T00:19:50.527Z,1018.7
2018-09-24T00:20:59.437Z,1018.69
2018-09-24T00:22:08.334Z,1018.72
2018-09-24T00:23:17.238Z,1018.74
2018-09-24T00:24:25.893Z,1018.77
2018-09-24T00:25:34.791Z,1018.78
2018-09-24T00:26:43.431Z,1018.78
2018-09-24T00:27:52.067Z,1018.79
2018-09-24T00:29:00.711Z,1018.83
2018-09-24T00:30:09.616Z,1018.84
2018-09-24T00:31:18.522Z,1018.86
2018-09-24T00:32:27.152Z,1018.87
2018-09-24T00:33:35.800Z,1018.9
2018-09-24T00:34:44.433Z,1018.9
2018-09-24T00:35:53.074Z,1018.89
2018-09-24T00:37:01.710Z,1018.92
2018-09-24T00:38:10.351Z,1018.92
2018-09-24T00:39:19.260Z,1018.97
2018-09-24T00:40:27.901Z,1019.02
2018-09-24T00:41:36.543Z,1019.06
2018-09-24T00:42:45.173Z,1019.05
2018-09-24T00:43:53.813Z,1019.04
2018-09-24T00:45:02.448Z,1019.04
2018-09-24T00:46:11.097Z,1019
2018-09-24T00:47:19.727Z,1019.06
2018-09-24T00:48:28.370Z,1019.07
2018-09-24T00:49:37.002Z,1019.06
2018-09-24T00:50:45.649Z,1019.11
2018-09-24T00:51:54.274Z,1019.12
2018-09-24T00:53:02.917Z,1019.2
2018-09-24T00:54:11.818Z,1019.22
2018-09-24T00:55:20.466Z,1019.21
2018-09-24T00:56:29.102Z,1019.24
2018-09-24T00:57:37.998Z,1019.24
2018-09-24T00:58:46.901Z,1019.23
2018-09-24T00:59:55.541Z,1019.2
2018-09-24T01:01:04.189Z,1019.21
2018-09-24T01:02:12.822Z,1019.24
2018-09-24T01:03:21.471Z,1019.26
2018-09-24T01:04:30.103Z,1019.26
2018-09-24T01:05:39.014Z,1019.28
2018-09-24T01:06:47.648Z,1019.25
2018-09-24T01:07:56.291Z,1019.31
2018-09-24T01:09:04.923Z,1019.34
2018-09-24T01:10:13.570Z,1019.39
2018-09-24T01:11:22.205Z,1019.45
2018-09-24T01:12:30.855Z,1019.45
2018-09-24T01:13:39.744Z,1019.53
2018-09-24T01:14:48.385Z,1019.56
2018-09-24T01:15:57.030Z,1019.55
2018-09-24T01:17:05.671Z,1019.59
2018-09-24T01:18:14.312Z,1019.65
2018-09-24T01:19:22.939Z,1019.69
2018-09-24T01:20:31.582Z,1019.71
2018-09-24T01:21:40.219Z,1019.76
2018-09-24T01:22:48.863Z,1019.79
2018-09-24T01:23:57.492Z,1019.78
2018-09-24T01:25:06.398Z,1019.82
2018-09-24T01:26:15.029Z,1019.83
2018-09-24T01:27:23.677Z,1019.83
2018-09-24T01:28:32.306Z,1019.86
2018-09-24T01:29:41.479Z,1019.82
2018-09-24T01:30:50.122Z,1019.86
2018-09-24T01:31:58.754Z,1019.84
2018-09-24T01:33:07.428Z,1019.84
2018-09-24T01:34:16.303Z,1019.87
2018-09-24T01:35:24.944Z,1019.86
2018-09-24T01:36:33.585Z,1019.83
2018-09-24T01:37:42.212Z,1019.93
2018-09-24T01:38:51.117Z,1019.96
2018-09-24T01:39:59.751Z,1019.97
2018-09-24T01:41:08.399Z,1020.03
2018-09-24T01:42:17.028Z,1020.05
2018-09-24T01:43:25.670Z,1020.05
2018-09-24T01:44:34.303Z,1020.05
2018-09-24T01:45:42.950Z,1020.06
2018-09-24T01:46:51.581Z,1020.09
2018-09-24T01:48:00.223Z,1020.09
2018-09-24T01:49:08.858Z,1020.15
2018-09-24T01:50:17.505Z,1020.19
2018-09-24T01:51:26.143Z,1020.17
2018-09-24T01:52:35.040Z,1020.18
2018-09-24T01:53:43.675Z,1020.19
2018-09-24T01:54:52.313Z,1020.2
2018-09-24T01:56:00.956Z,1020.21
2018-09-24T01:57:09.852Z,1020.19
2018-09-24T01:58:18.495Z,1020.21
2018-09-24T01:59:27.124Z,1020.23
2018-09-24T02:00:35.772Z,1020.23
2018-09-24T02:01:44.405Z,1020.27
2018-09-24T02:02:53.327Z,1020.3
2018-09-24T02:04:01.955Z,1020.25
2018-09-24T02:05:10.600Z,1020.28
2018-09-24T02:06:19.505Z,1020.3
2018-09-24T02:07:28.145Z,1020.32
2018-09-24T02:08:36.777Z,1020.36
2018-09-24T02:09:45.676Z,1020.38
2018-09-24T02:10:54.320Z,1020.43
2018-09-24T02:12:02.959Z,1020.48
2018-09-24T02:13:11.598Z,1020.52
2018-09-24T02:14:20.227Z,1020.48
2018-09-24T02:15:29.131Z,1020.54
2018-09-24T02:16:37.768Z,1020.5
2018-09-24T02:17:46.671Z,1020.61
2018-09-24T02:18:55.300Z,1020.57
2018-09-24T02:20:03.944Z,1020.53
2018-09-24T02:21:12.578Z,1020.51
2018-09-24T02:22:21.508Z,1020.56
2018-09-24T02:23:30.137Z,1020.58
2018-09-24T02:24:39.049Z,1020.59
2018-09-24T02:25:47.685Z,1020.66
2018-09-24T02:26:56.331Z,1020.7
2018-09-24T02:28:04.971Z,1020.68
2018-09-24T02:29:13.601Z,1020.69
2018-09-24T02:30:22.250Z,1020.68
2018-09-24T02:31:31.163Z,1020.71
2018-09-24T02:32:39.831Z,1020.71
2018-09-24T02:33:48.736Z,1020.73
2018-09-24T02:34:57.383Z,1020.72
2018-09-24T02:36:06.277Z,1020.74
2018-09-24T02:37:14.918Z,1020.69
2018-09-24T02:38:23.556Z,1020.73
2018-09-24T02:39:32.193Z,1020.74
2018-09-24T02:40:40.832Z,1020.73
2018-09-24T02:41:50.281Z,1020.77
2018-09-24T02:42:59.453Z,1020.78
2018-09-24T02:44:08.099Z,1020.81
2018-09-24T02:45:16.739Z,1020.83
2018-09-24T02:46:25.383Z,1020.8
2018-09-24T02:47:34.020Z,1020.81
2018-09-24T02:48:42.662Z,1020.85
2018-09-24T02:49:51.307Z,1020.83
2018-09-24T02:50:59.939Z,1020.88
2018-09-24T02:52:08.578Z,1020.94
2018-09-24T02:53:17.217Z,1020.92
2018-09-24T02:54:25.859Z,1021.01
2018-09-24T02:55:34.493Z,1021.03
2018-09-24T02:56:43.399Z,1021.01
2018-09-24T02:57:52.300Z,1021.03
2018-09-24T02:59:00.938Z,1021.04
2018-09-24T03:00:09.834Z,1021.04
2018-09-24T03:01:18.538Z,1021.07
2018-09-24T03:02:27.117Z,1021.1
2018-09-24T03:03:35.752Z,1021.11
2018-09-24T03:04:44.387Z,1021.16
2018-09-24T03:05:53.028Z,1021.16
2018-09-24T03:07:01.931Z,1021.2
2018-09-24T03:08:10.577Z,1021.23
2018-09-24T03:09:19.491Z,1021.31
2018-09-24T03:10:28.127Z,1021.32
2018-09-24T03:11:36.768Z,1021.3
2018-09-24T03:12:45.734Z,1021.34
2018-09-24T03:13:54.331Z,1021.36
2018-09-24T03:15:02.972Z,1021.34
2018-09-24T03:16:11.613Z,1021.34
2018-09-24T03:17:20.247Z,1021.37
2018-09-24T03:18:28.892Z,1021.39
2018-09-24T03:19:37.530Z,1021.34
2018-09-24T03:20:46.170Z,1021.43
2018-09-24T03:21:54.807Z,1021.48
2018-09-24T03:23:03.447Z,1021.49
2018-09-24T03:24:12.088Z,1021.53
2018-09-24T03:25:20.767Z,1021.52
2018-09-24T03:26:29.670Z,1021.56
2018-09-24T03:27:38.304Z,1021.52
2018-09-24T03:28:46.947Z,1021.56
2018-09-24T03:29:55.589Z,1021.59
2018-09-24T03:31:04.219Z,1021.63
2018-09-24T03:32:12.870Z,1021.63
2018-09-24T03:33:22.029Z,1021.7
2018-09-24T03:34:30.673Z,1021.65
2018-09-24T03:35:39.302Z,1021.64
2018-09-24T03:36:47.953Z,1021.66
2018-09-24T03:37:56.591Z,1021.64
2018-09-24T03:39:05.233Z,1021.68
2018-09-24T03:40:13.861Z,1021.64
2018-09-24T03:41:22.501Z,1021.7
2018-09-24T03:42:31.408Z,1021.7
2018-09-24T03:43:40.053Z,1021.71
2018-09-24T03:44:48.692Z,1021.68
2018-09-24T03:45:57.330Z,1021.73
2018-09-24T03:47:05.980Z,1021.71
2018-09-24T03:48:14.617Z,1021.7
2018-09-24T03:49:23.260Z,1021.73
2018-09-24T03:50:31.891Z,1021.79
2018-09-24T03:51:40.540Z,1021.74
2018-09-24T03:52:49.173Z,1021.74
2018-09-24T03:53:57.826Z,1021.82
2018-09-24T03:55:06.452Z,1021.76
2018-09-24T03:56:15.095Z,1021.8
2018-09-24T03:57:23.730Z,1021.78
2018-09-24T03:58:32.376Z,1021.8
2018-09-24T03:59:41.010Z,1021.8
2018-09-24T04:00:49.651Z,1021.8
2018-09-24T04:01:58.553Z,1021.82
2018-09-24T04:03:07.190Z,1021.85
2018-09-24T04:04:15.839Z,1021.87
2018-09-24T04:05:24.470Z,1021.83
2018-09-24T04:06:33.114Z,1021.84
2018-09-24T04:07:42.012Z,1021.85
2018-09-24T04:08:50.659Z,1021.84
2018-09-24T04:09:59.700Z,1021.9
2018-09-24T04:11:08.824Z,1021.9
2018-09-24T04:12:17.744Z,1021.96
2018-09-24T04:13:26.924Z,1021.96
2018-09-24T04:14:35.831Z,1021.96
2018-09-24T04:15:44.476Z,1022
2018-09-24T04:16:53.109Z,1022.05
2018-09-24T04:18:02.014Z,1022.09
2018-09-24T04:19:10.925Z,1022.11
2018-09-24T04:20:19.825Z,1022.09
2018-09-24T04:21:28.467Z,1022.13
2018-09-24T04:22:37.100Z,1022.17
2018-09-24T04:23:45.999Z,1022.17
2018-09-24T04:24:54.926Z,1022.26
2018-09-24T04:26:03.623Z,1022.29
2018-09-24T04:27:12.504Z,1022.26
2018-09-24T04:28:21.147Z,1022.28
2018-09-24T04:29:30.066Z,1022.29
2018-09-24T04:30:38.712Z,1022.33
2018-09-24T04:31:47.344Z,1022.29
2018-09-24T04:32:55.985Z,1022.28
2018-09-24T04:34:04.628Z,1022.3
2018-09-24T04:35:13.541Z,1022.31
2018-09-24T04:36:22.441Z,1022.35
2018-09-24T04:37:31.078Z,1022.33
2018-09-24T04:38:39.981Z,1022.31
2018-09-24T04:39:48.606Z,1022.37
2018-09-24T04:40:57.248Z,1022.39
2018-09-24T04:42:06.150Z,1022.43
2018-09-24T04:43:14.793Z,1022.43
2018-09-24T04:44:23.685Z,1022.48
2018-09-24T04:45:32.327Z,1022.54
2018-09-24T04:46:40.969Z,1022.51
2018-09-24T04:47:49.875Z,1022.48
2018-09-24T04:48:58.528Z,1022.52
2018-09-24T04:50:07.484Z,1022.47
2018-09-24T04:51:16.116Z,1022.5
2018-09-24T04:52:25.027Z,1022.53
2018-09-24T04:53:33.659Z,1022.56
2018-09-24T04:54:42.564Z,1022.54
2018-09-24T04:55:51.467Z,1022.55
2018-09-24T04:57:00.107Z,1022.58
2018-09-24T04:58:09.019Z,1022.59
2018-09-24T04:59:17.921Z,1022.6
2018-09-24T05:00:26.824Z,1022.65
2018-09-24T05:01:35.737Z,1022.62
2018-09-24T05:02:44.377Z,1022.64
2018-09-24T05:03:53.013Z,1022.69
2018-09-24T05:05:01.651Z,1022.7
2018-09-24T05:06:10.552Z,1022.67
2018-09-24T05:07:19.193Z,1022.73
2018-09-24T05:08:28.086Z,1022.77
2018-09-24T05:09:36.733Z,1022.72
2018-09-24T05:10:45.371Z,1022.74
2018-09-24T05:11:54.014Z,1022.71
2018-09-24T05:13:02.647Z,1022.73
2018-09-24T05:14:11.285Z,1022.78
2018-09-24T05:15:19.925Z,1022.83
2018-09-24T05:16:28.627Z,1022.81
2018-09-24T05:17:37.689Z,1022.83
2018-09-24T05:18:46.315Z,1022.9
2018-09-24T05:19:55.012Z,1022.87
2018-09-24T05:21:03.850Z,1022.82
2018-09-24T05:22:12.490Z,1022.84
2018-09-24T05:23:21.127Z,1022.9
2018-09-24T05:24:30.035Z,1022.89
2018-09-24T05:25:38.934Z,1022.9
2018-09-24T05:26:47.827Z,1022.92
2018-09-24T05:27:56.468Z,1022.92
2018-09-24T05:29:05.369Z,1022.96
2018-09-24T05:30:14.012Z,1022.94
2018-09-24T05:31:22.648Z,1022.97
2018-09-24T05:32:31.360Z,1022.94
2018-09-24T05:33:39.923Z,1022.97
2018-09-24T05:34:48.877Z,1022.96
2018-09-24T05:35:57.520Z,1023
2018-09-24T05:37:06.444Z,1023.05
2018-09-24T05:38:15.066Z,1023.07
2018-09-24T05:39:23.700Z,1023.06
2018-09-24T05:40:32.342Z,1023.11
2018-09-24T05:41:40.981Z,1023.1
2018-09-24T05:42:49.886Z,1023.08
2018-09-24T05:43:58.521Z,1023.1
2018-09-24T05:45:07.159Z,1023.11
2018-09-24T05:46:16.057Z,1023.18
2018-09-24T05:47:24.698Z,1023.17
2018-09-24T05:48:33.332Z,1023.2
2018-09-24T05:49:42.245Z,1023.2
2018-09-24T05:50:50.884Z,1023.25
2018-09-24T05:51:59.524Z,1023.25
2018-09-24T05:53:08.165Z,1023.27
2018-09-24T05:54:17.076Z,1023.24
2018-09-24T05:55:26.056Z,1023.26
2018-09-24T05:56:34.694Z,1023.27
2018-09-24T05:57:43.335Z,1023.26
2018-09-24T05:58:51.971Z,1023.27
2018-09-24T06:00:00.897Z,1023.27
2018-09-24T06:01:09.538Z,1023.29
2018-09-24T06:02:18.441Z,1023.32
2018-09-24T06:03:27.082Z,1023.35
2018-09-24T06:04:35.819Z,1023.33
2018-09-24T06:05:44.699Z,1023.37
2018-09-24T06:06:53.341Z,1023.39
2018-09-24T06:08:01.978Z,1023.4
2018-09-24T06:09:10.878Z,1023.45
2018-09-24T06:10:19.508Z,1023.46
2018-09-24T06:11:28.145Z,1023.45
2018-09-24T06:12:37.052Z,1023.48
2018-09-24T06:13:45.736Z,1023.52
2018-09-24T06:14:54.328Z,1023.52
2018-09-24T06:16:02.961Z,1023.54
2018-09-24T06:17:11.637Z,1023.54
2018-09-24T06:18:20.534Z,1023.6
2018-09-24T06:19:29.172Z,1023.62
2018-09-24T06:20:37.805Z,1023.63
2018-09-24T06:21:46.716Z,1023.64
2018-09-24T06:22:55.371Z,1023.66
2018-09-24T06:24:04.011Z,1023.7
2018-09-24T06:25:12.640Z,1023.68
2018-09-24T06:26:21.281Z,1023.71
2018-09-24T06:27:29.923Z,1023.74
2018-09-24T06:28:38.561Z,1023.75
2018-09-24T06:29:47.486Z,1023.73
2018-09-24T06:30:56.115Z,1023.8
2018-09-24T06:32:04.760Z,1023.8
2018-09-24T06:33:13.655Z,1023.79
2018-09-24T06:34:22.311Z,1023.85
2018-09-24T06:35:30.942Z,1023.87
2018-09-24T06:36:39.846Z,1023.86
2018-09-24T06:37:48.482Z,1023.9
2018-09-24T06:38:57.127Z,1023.89
2018-09-24T06:40:05.773Z,1023.89
2018-09-24T06:41:14.433Z,1023.95
2018-09-24T06:42:23.419Z,1023.91
2018-09-24T06:43:32.068Z,1023.93
2018-09-24T06:44:40.707Z,1023.98
2018-09-24T06:45:49.346Z,1023.97
2018-09-24T06:46:58.510Z,1024
2018-09-24T06:48:07.149Z,1024.01
2018-09-24T06:49:15.799Z,1023.98
2018-09-24T06:50:24.437Z,1023.99
2018-09-24T06:51:33.080Z,1024.04
2018-09-24T06:52:42.259Z,1024.05
2018-09-24T06:53:50.910Z,1024.08
2018-09-24T06:54:59.804Z,1024.12
2018-09-24T06:56:08.447Z,1024.1
2018-09-24T06:57:17.373Z,1024.14
2018-09-24T06:58:26.036Z,1024.21
2018-09-24T06:59:34.950Z,1024.22
2018-09-24T07:00:43.579Z,1024.19
2018-09-24T07:01:52.513Z,1024.2
2018-09-24T07:03:01.171Z,1024.22
2018-09-24T07:04:09.810Z,1024.24
2018-09-24T07:05:18.507Z,1024.27
2018-09-24T07:06:27.093Z,1024.29
2018-09-24T07:07:35.829Z,1024.29
2018-09-24T07:08:44.487Z,1024.3
2018-09-24T07:09:53.119Z,1024.31
2018-09-24T07:11:01.776Z,1024.29
2018-09-24T07:12:10.403Z,1024.31
2018-09-24T07:13:19.045Z,1024.34
2018-09-24T07:14:28.009Z,1024.37
2018-09-24T07:15:36.657Z,1024.4
2018-09-24T07:16:45.288Z,1024.41
2018-09-24T07:17:53.927Z,1024.4
2018-09-24T07:19:02.564Z,1024.52
2018-09-24T07:20:11.217Z,1024.47
2018-09-24T07:21:20.224Z,1024.52
2018-09-24T07:22:29.178Z,1024.57
2018-09-24T07:23:38.354Z,1024.54
2018-09-24T07:24:46.994Z,1024.61
2018-09-24T07:25:55.640Z,1024.63
2018-09-24T07:27:04.283Z,1024.65
2018-09-24T07:28:12.972Z,1024.68
2018-09-24T07:29:21.554Z,1024.73
2018-09-24T07:30:30.253Z,1024.73
2018-09-24T07:31:39.157Z,1024.72
2018-09-24T07:32:47.814Z,1024.73
2018-09-24T07:33:56.693Z,1024.77
2018-09-24T07:35:05.338Z,1024.81
2018-09-24T07:36:13.984Z,1024.83
2018-09-24T07:37:22.617Z,1024.81
2018-09-24T07:38:31.251Z,1024.82
2018-09-24T07:39:39.892Z,1024.8
2018-09-24T07:40:48.535Z,1024.92
2018-09-24T07:41:57.175Z,1024.92
2018-09-24T07:43:05.867Z,1024.97
2018-09-24T07:44:14.871Z,1024.97
2018-09-24T07:45:23.507Z,1025
2018-09-24T07:46:32.148Z,1025.04
2018-09-24T07:47:40.792Z,1025.08
2018-09-24T07:48:49.429Z,1025.12
2018-09-24T07:49:58.066Z,1025.09
2018-09-24T07:51:06.978Z,1025.12
2018-09-24T07:52:15.883Z,1025.17
2018-09-24T07:53:24.517Z,1025.16
2018-09-24T07:54:33.160Z,1025.12
2018-09-24T07:55:41.801Z,1025.13
2018-09-24T07:56:50.711Z,1025.19
2018-09-24T07:57:59.349Z,1025.21
2018-09-24T07:59:07.989Z,1025.18
2018-09-24T08:00:16.892Z,1025.23
2018-09-24T08:01:25.531Z,1025.28
2018-09-24T08:02:34.178Z,1025.32
2018-09-24T08:03:42.819Z,1025.27
2018-09-24T08:04:51.453Z,1025.27
2018-09-24T08:06:00.090Z,1025.32
2018-09-24T08:07:08.738Z,1025.35
2018-09-24T08:08:17.370Z,1025.38
2018-09-24T08:09:26.011Z,1025.33
2018-09-24T08:10:34.645Z,1025.35
2018-09-24T08:11:43.288Z,1025.41
2018-09-24T08:12:51.989Z,1025.35
2018-09-24T08:14:00.569Z,1025.42
2018-09-24T08:15:09.204Z,1025.45
2018-09-24T08:16:17.844Z,1025.44
2018-09-24T08:17:26.753Z,1025.52
2018-09-24T08:18:35.657Z,1025.45
2018-09-24T08:19:44.303Z,1025.53
2018-09-24T08:20:52.958Z,1025.49
2018-09-24T08:22:01.579Z,1025.51
2018-09-24T08:23:10.220Z,1025.58
2018-09-24T08:24:18.869Z,1025.54
2018-09-24T08:25:27.500Z,1025.54
2018-09-24T08:26:36.143Z,1025.58
2018-09-24T08:27:44.781Z,1025.62
2018-09-24T08:28:53.484Z,1025.69
2018-09-24T08:30:02.069Z,1025.65
2018-09-24T08:31:10.713Z,1025.69
2018-09-24T08:32:19.351Z,1025.67
2018-09-24T08:33:28.266Z,1025.72
2018-09-24T08:34:36.903Z,1025.75
2018-09-24T08:35:45.540Z,1025.72
2018-09-24T08:36:54.178Z,1025.71
2018-09-24T08:38:02.832Z,1025.74
2018-09-24T08:39:11.751Z,1025.66
2018-09-24T08:40:20.387Z,1025.78
2018-09-24T08:41:29.033Z,1025.72
2018-09-24T08:42:37.934Z,1025.72
2018-09-24T08:43:46.573Z,1025.71
2018-09-24T08:44:55.207Z,1025.74
2018-09-24T08:46:04.115Z,1025.79
2018-09-24T08:47:12.747Z,1025.72
2018-09-24T08:48:21.398Z,1025.75
2018-09-24T08:49:30.040Z,1025.81
2018-09-24T08:50:38.685Z,1025.79
2018-09-24T08:51:47.330Z,1025.81
2018-09-24T08:52:55.972Z,1025.78
2018-09-24T08:54:04.618Z,1025.92
2018-09-24T08:55:13.527Z,1025.92
2018-09-24T08:56:22.174Z,1025.87
2018-09-24T08:57:30.800Z,1025.89
2018-09-24T08:58:39.449Z,1025.87
2018-09-24T08:59:48.085Z,1025.86
2018-09-24T09:00:56.735Z,1025.84
2018-09-24T09:02:05.368Z,1025.88
2018-09-24T09:03:14.013Z,1025.89
2018-09-24T09:04:22.649Z,1025.9
2018-09-24T09:05:31.301Z,1025.9
2018-09-24T09:06:39.932Z,1025.93
2018-09-24T09:07:48.573Z,1025.88
2018-09-24T09:08:57.562Z,1025.89
2018-09-24T09:10:06.483Z,1025.94
2018-09-24T09:11:15.124Z,1025.98
2018-09-24T09:12:23.762Z,1025.94
2018-09-24T09:13:32.401Z,1025.92
2018-09-24T09:14:41.464Z,1025.99
2018-09-24T09:15:50.117Z,1025.95
2018-09-24T09:16:59.041Z,1026.02
2018-09-24T09:18:07.686Z,1025.95
2018-09-24T09:19:16.581Z,1025.93
2018-09-24T09:20:25.751Z,1026.02
2018-09-24T09:21:34.398Z,1026.01
2018-09-24T09:22:43.031Z,1026
2018-09-24T09:23:51.741Z,1026.02
2018-09-24T09:25:00.314Z,1026.04
2018-09-24T09:26:08.957Z,1026.06
2018-09-24T09:27:17.856Z,1026.14
2018-09-24T09:28:26.507Z,1026.08
2018-09-24T09:29:35.525Z,1026.14
2018-09-24T09:30:44.066Z,1026.16
2018-09-24T09:31:52.704Z,1026.15
2018-09-24T09:33:01.605Z,1026.16
2018-09-24T09:34:10.256Z,1026.21
2018-09-24T09:35:18.949Z,1026.18
2018-09-24T09:36:28.216Z,1026.2
2018-09-24T09:37:36.850Z,1026.25
2018-09-24T09:38:45.499Z,1026.25
2018-09-24T09:39:54.135Z,1026.28
2018-09-24T09:41:02.853Z,1026.43
2018-09-24T09:42:11.413Z,1026.35
2018-09-24T09:43:20.062Z,1026.29
2018-09-24T09:44:28.702Z,1026.31
2018-09-24T09:45:37.347Z,1026.34
2018-09-24T09:46:46.024Z,1026.32
2018-09-24T09:47:54.629Z,1026.34
2018-09-24T09:49:03.538Z,1026.33
2018-09-24T09:50:12.441Z,1026.36
2018-09-24T09:51:21.084Z,1026.41
2018-09-24T09:52:29.722Z,1026.37
2018-09-24T09:53:38.406Z,1026.38
2018-09-24T09:54:47.005Z,1026.38
2018-09-24T09:55:55.654Z,1026.41
2018-09-24T09:57:04.286Z,1026.4
2018-09-24T09:58:13.202Z,1026.45
2018-09-24T09:59:22.103Z,1026.45
2018-09-24T10:00:31.016Z,1026.42
2018-09-24T10:01:39.652Z,1026.48
2018-09-24T10:02:48.293Z,1026.51
2018-09-24T10:03:56.933Z,1026.44
2018-09-24T10:05:05.584Z,1026.49
2018-09-24T10:06:14.223Z,1026.48
2018-09-24T10:07:22.862Z,1026.47
2018-09-24T10:08:31.499Z,1026.44
2018-09-24T10:09:40.139Z,1026.53
2018-09-24T10:10:48.793Z,1026.51
2018-09-24T10:11:57.432Z,1026.41
2018-09-24T10:13:06.350Z,1026.45
2018-09-24T10:14:14.975Z,1026.39
2018-09-24T10:15:23.626Z,1026.37
2018-09-24T10:16:32.526Z,1026.39
2018-09-24T10:17:41.169Z,1026.38
2018-09-24T10:18:49.807Z,1026.38
2018-09-24T10:19:58.711Z,1026.42
2018-09-24T10:21:07.350Z,1026.44
2018-09-24T10:22:16.265Z,1026.44
2018-09-24T10:23:24.901Z,1026.37
2018-09-24T10:24:33.546Z,1026.37
2018-09-24T10:25:42.192Z,1026.4
2018-09-24T10:26:51.100Z,1026.33
2018-09-24T10:28:00.011Z,1026.31
2018-09-24T10:29:08.648Z,1026.28
2018-09-24T10:30:17.289Z,1026.36
2018-09-24T10:31:25.938Z,1026.36
2018-09-24T10:32:34.577Z,1026.39
2018-09-24T10:33:43.896Z,1026.36
2018-09-24T10:34:52.477Z,1026.45
2018-09-24T10:36:01.380Z,1026.36
2018-09-24T10:37:10.022Z,1026.38
2018-09-24T10:38:18.662Z,1026.4
2018-09-24T10:39:27.309Z,1026.34
2018-09-24T10:40:35.946Z,1026.37
2018-09-24T10:41:44.594Z,1026.3
2018-09-24T10:42:53.235Z,1026.35
2018-09-24T10:44:01.879Z,1026.39
2018-09-24T10:45:10.544Z,1026.4
2018-09-24T10:46:19.184Z,1026.38
2018-09-24T10:47:27.965Z,1026.37
2018-09-24T10:48:36.610Z,1026.44
2018-09-24T10:49:45.400Z,1026.42
2018-09-24T10:50:54.039Z,1026.41
2018-09-24T10:52:02.686Z,1026.36
2018-09-24T10:53:11.331Z,1026.4
2018-09-24T10:54:19.973Z,1026.46
2018-09-24T10:55:28.611Z,1026.45
2018-09-24T10:56:37.257Z,1026.41
2018-09-24T10:57:45.896Z,1026.52
2018-09-24T10:58:54.542Z,1026.48
2018-09-24T11:00:03.179Z,1026.54
2018-09-24T11:01:11.829Z,1026.5
2018-09-24T11:02:20.469Z,1026.52
2018-09-24T11:03:29.113Z,1026.52
2018-09-24T11:04:37.757Z,1026.55
2018-09-24T11:05:46.394Z,1026.49
2018-09-24T11:06:55.035Z,1026.52
2018-09-24T11:08:03.941Z,1026.5
2018-09-24T11:09:12.588Z,1026.47
2018-09-24T11:10:21.305Z,1026.46
2018-09-24T11:11:29.890Z,1026.41
2018-09-24T11:12:39.063Z,1026.45
2018-09-24T11:13:47.711Z,1026.38
2018-09-24T11:14:56.609Z,1026.4
2018-09-24T11:16:05.397Z,1026.39
2018-09-24T11:17:14.177Z,1026.35
2018-09-24T11:18:23.368Z,1026.33
2018-09-24T11:19:32.007Z,1026.41
2018-09-24T11:20:40.648Z,1026.41
2018-09-24T11:21:49.289Z,1026.43
2018-09-24T11:22:57.929Z,1026.4
2018-09-24T11:24:06.577Z,1026.42
2018-09-24T11:25:15.224Z,1026.5
2018-09-24T11:27:33.500Z,1026.58
2018-09-24T11:28:42.148Z,1026.48
2018-09-24T11:29:50.791Z,1026.53
2018-09-24T11:30:59.705Z,1026.53
2018-09-24T11:32:08.344Z,1026.55
2018-09-24T11:33:16.990Z,1026.54
2018-09-24T11:34:25.633Z,1026.54
2018-09-24T11:35:34.279Z,1026.52
2018-09-24T11:36:42.914Z,1026.52
2018-09-24T11:37:51.559Z,1026.58
2018-09-24T11:39:00.202Z,1026.55
2018-09-24T11:40:08.850Z,1026.51
2018-09-24T11:41:17.493Z,1026.5
2018-09-24T11:42:26.158Z,1026.56
2018-09-24T11:43:34.802Z,1026.58
2018-09-24T11:44:43.707Z,1026.53
2018-09-24T11:45:52.355Z,1026.5
2018-09-24T11:47:01.353Z,1026.5
2018-09-24T11:48:10.336Z,1026.51
2018-09-24T11:49:18.978Z,1026.58
2018-09-24T11:50:27.627Z,1026.62
2018-09-24T11:51:36.265Z,1026.6
2018-09-24T11:52:44.915Z,1026.56
2018-09-24T11:53:53.620Z,1026.51
2018-09-24T11:55:02.299Z,1026.62
2018-09-24T11:56:11.298Z,1026.58
2018-09-24T11:57:20.243Z,1026.56
2018-09-24T11:58:28.944Z,1026.52
2018-09-24T11:59:37.584Z,1026.51
2018-09-24T12:00:46.301Z,1026.49
2018-09-24T12:01:54.954Z,1026.51
2018-09-24T12:03:03.932Z,1026.51
2018-09-24T12:04:12.574Z,1026.49
2018-09-24T12:05:21.222Z,1026.55
2018-09-24T12:06:29.864Z,1026.59
2018-09-24T12:07:38.786Z,1026.59
2018-09-24T12:08:47.425Z,1026.61
2018-09-24T12:09:56.073Z,1026.73
2018-09-24T12:11:04.716Z,1026.71
2018-09-24T12:12:13.390Z,1026.87
2018-09-24T12:13:22.029Z,1026.82
2018-09-24T12:14:30.701Z,1026.88
2018-09-24T12:15:39.344Z,1027.02
2018-09-24T12:16:48.105Z,1026.99
2018-09-24T12:17:56.770Z,1026.93
2018-09-24T12:19:05.385Z,1026.94
2018-09-24T12:20:14.295Z,1026.91
2018-09-24T12:21:22.933Z,1026.88
2018-09-24T12:22:31.844Z,1026.93
2018-09-24T12:23:40.477Z,1026.89
2018-09-24T12:24:49.121Z,1026.86
2018-09-24T12:25:57.757Z,1026.89
2018-09-24T12:27:06.407Z,1026.89
2018-09-24T12:28:15.040Z,1026.88
2018-09-24T12:29:23.682Z,1026.81
2018-09-24T12:30:32.324Z,1026.79
2018-09-24T12:31:40.976Z,1026.8
2018-09-24T12:32:49.613Z,1026.75
2018-09-24T12:33:58.777Z,1026.71
2018-09-24T12:35:07.425Z,1026.69
2018-09-24T12:36:16.066Z,1026.7
2018-09-24T12:37:24.718Z,1026.67
2018-09-24T12:38:33.355Z,1026.7
2018-09-24T12:39:42.001Z,1026.68
2018-09-24T12:40:50.633Z,1026.71
2018-09-24T12:41:59.557Z,1026.74
2018-09-24T12:43:08.184Z,1026.78
2018-09-24T12:44:16.831Z,1026.75
2018-09-24T12:45:25.465Z,1026.75
2018-09-24T12:46:34.111Z,1026.76
2018-09-24T12:47:42.754Z,1026.77
2018-09-24T12:48:51.397Z,1026.76
2018-09-24T12:50:00.029Z,1026.83
2018-09-24T12:51:08.673Z,1026.84
2018-09-24T12:52:17.322Z,1026.84
2018-09-24T12:53:25.987Z,1026.84
2018-09-24T12:54:35.023Z,1026.81
2018-09-24T12:55:43.657Z,1026.75
2018-09-24T12:56:52.567Z,1026.73
2018-09-24T12:58:01.466Z,1026.77
2018-09-24T12:59:10.119Z,1026.78
2018-09-24T13:00:19.021Z,1026.8
2018-09-24T13:01:27.667Z,1026.78
2018-09-24T13:02:36.303Z,1026.74
2018-09-24T13:03:45.216Z,1026.74
2018-09-24T13:04:53.848Z,1026.81
2018-09-24T13:06:02.498Z,1026.76
2018-09-24T13:07:11.140Z,1026.76
2018-09-24T13:08:19.854Z,1026.78
2018-09-24T13:09:28.779Z,1026.79
2018-09-24T13:10:37.418Z,1026.81
2018-09-24T13:11:46.320Z,1026.83
2018-09-24T13:12:54.961Z,1026.75
2018-09-24T13:14:03.612Z,1026.74
2018-09-24T13:15:12.251Z,1026.7
2018-09-24T13:16:20.888Z,1026.74
2018-09-24T13:17:29.543Z,1026.78
2018-09-24T13:18:38.176Z,1026.8
2018-09-24T13:19:46.823Z,1026.77
2018-09-24T13:20:55.462Z,1026.74
2018-09-24T13:22:04.371Z,1026.74
2018-09-24T13:23:13.001Z,1026.74
2018-09-24T13:24:21.644Z,1026.74
2018-09-24T13:25:30.546Z,1026.74
2018-09-24T13:26:39.462Z,1026.75
2018-09-24T13:27:48.102Z,1026.75
2018-09-24T13:28:56.740Z,1026.78
2018-09-24T13:30:05.383Z,1026.79
2018-09-24T13:31:14.019Z,1026.76
2018-09-24T13:32:22.704Z,1026.77
2018-09-24T13:33:31.315Z,1026.79
2018-09-24T13:34:40.231Z,1026.79
2018-09-24T13:35:48.862Z,1026.81
2018-09-24T13:36:57.517Z,1026.82
2018-09-24T13:38:06.156Z,1026.82
2018-09-24T13:39:14.802Z,1026.84
2018-09-24T13:40:23.434Z,1026.84
2018-09-24T13:41:32.083Z,1026.83
2018-09-24T13:42:40.992Z,1026.85
2018-09-24T13:43:49.635Z,1026.79
2018-09-24T13:44:58.267Z,1026.8
2018-09-24T13:46:07.185Z,1026.8
2018-09-24T13:47:15.832Z,1026.75
2018-09-24T13:48:24.479Z,1026.83
2018-09-24T13:49:33.136Z,1026.84
2018-09-24T13:50:41.767Z,1026.78
2018-09-24T13:51:50.414Z,1026.78
2018-09-24T13:52:59.058Z,1026.8
2018-09-24T13:54:07.711Z,1026.65
2018-09-24T13:55:16.352Z,1026.75